sensor_id;sensor_type;location;lat;lon;timestamp;temperature;humidity
53954;HTU21D;39862;54.856;26.318;2022-09-09T02:13:17;6.5;65.4
53954;HTU21D;39862;54.856;26.318;2022-09-09T02:19:01;6.5;65.6
53954;HTU21D;39862;54.856;26.318;2022-09-09T02:23:46;6.5;66
53954;HTU21D;39862;54.856;26.318;2022-09-09T02:28:35;6.5;65.8
53954;HTU21D;39862;54.856;26.318;2022-09-09T02:33:58;6.5;65.6
53954;HTU21D;39862;54.856;26.318;2022-09-09T02:38:45;6.5;65.5
53954;HTU21D;39862;54.856;26.318;2022-09-09T02:43:47;6.5;65.4
53954;HTU21D;39862;54.856;26.318;2022-09-09T02:48:45;6.4;65.5
53954;HTU21D;39862;54.856;26.318;2022-09-09T02:53:17;6.4;65.5
53954;HTU21D;39862;54.856;26.318;2022-09-09T02:58:59;6.4;65.5
53954;HTU21D;39862;54.856;26.318;2022-09-09T03:03:47;6.3;65.6
53954;HTU21D;39862;54.856;26.318;2022-09-09T03:08:27;6.3;65.8
53954;HTU21D;39862;54.856;26.318;2022-09-09T03:13:47;6.3;66.1
53954;HTU21D;39862;54.856;26.318;2022-09-09T03:18:45;6.3;66.2
53954;HTU21D;39862;54.856;26.318;2022-09-09T03:23:35;6.3;66
53954;HTU21D;39862;54.856;26.318;2022-09-09T03:28:15;6.2;65.7
53954;HTU21D;39862;54.856;26.318;2022-09-09T03:33:59;6.2;65.7
53954;HTU21D;39862;54.856;26.318;2022-09-09T03:38:24;6.2;65.7
53954;HTU21D;39862;54.856;26.318;2022-09-09T03:43:25;6.1;66.3
53954;HTU21D;39862;54.856;26.318;2022-09-09T03:48:59;6;66.3
53954;HTU21D;39862;54.856;26.318;2022-09-09T03:53:57;6.1;66
53954;HTU21D;39862;54.856;26.318;2022-09-09T03:58:47;6;66.4
53954;HTU21D;39862;54.856;26.318;2022-09-09T04:03:25;6;66.8
53954;HTU21D;39862;54.856;26.318;2022-09-09T04:08:23;5.9;66.8
53954;HTU21D;39862;54.856;26.318;2022-09-09T04:13:47;5.9;67
53954;HTU21D;39862;54.856;26.318;2022-09-09T04:18:59;5.9;67.4
53954;HTU21D;39862;54.856;26.318;2022-09-09T04:23:24;6;67.4
53954;HTU21D;39862;54.856;26.318;2022-09-09T04:28:16;6;67.6
53954;HTU21D;39862;54.856;26.318;2022-09-09T04:33:35;6;68.2
53954;HTU21D;39862;54.856;26.318;2022-09-09T04:38:25;6;68.4
53954;HTU21D;39862;54.856;26.318;2022-09-09T04:43:23;6.1;68.8
53954;HTU21D;39862;54.856;26.318;2022-09-09T04:48:37;6.1;69.3
53954;HTU21D;39862;54.856;26.318;2022-09-09T04:53:44;6.2;70.1
53954;HTU21D;39862;54.856;26.318;2022-09-09T04:59:01;6.3;70.4
53954;HTU21D;39862;54.856;26.318;2022-09-09T05:03:35;6.3;70.7
53954;HTU21D;39862;54.856;26.318;2022-09-09T05:09:01;6.4;70.9
53954;HTU21D;39862;54.856;26.318;2022-09-09T05:14:02;6.5;71
53954;HTU21D;39862;54.856;26.318;2022-09-09T05:18:15;6.6;71.2
53954;HTU21D;39862;54.856;26.318;2022-09-09T05:23:25;6.7;71.2
53954;HTU21D;39862;54.856;26.318;2022-09-09T05:28:25;6.8;71.2
53954;HTU21D;39862;54.856;26.318;2022-09-09T05:33:31;6.9;71.2
53954;HTU21D;39862;54.856;26.318;2022-09-09T05:38:51;7;71.3
53954;HTU21D;39862;54.856;26.318;2022-09-09T05:43:49;7.1;71.7
53954;HTU21D;39862;54.856;26.318;2022-09-09T05:48:50;7.2;72.3
53954;HTU21D;39862;54.856;26.318;2022-09-09T05:53:45;7.4;73.6
53954;HTU21D;39862;54.856;26.318;2022-09-09T05:58:35;7.6;74.6
53954;HTU21D;39862;54.856;26.318;2022-09-09T06:03:34;7.8;75.4
53954;HTU21D;39862;54.856;26.318;2022-09-09T06:08:15;8.1;76
53954;HTU21D;39862;54.856;26.318;2022-09-09T06:13:25;8.5;76.4
53954;HTU21D;39862;54.856;26.318;2022-09-09T06:18:45;8.8;76.4
53954;HTU21D;39862;54.856;26.318;2022-09-09T06:24:01;9.2;76.3
53954;HTU21D;39862;54.856;26.318;2022-09-09T06:28:49;9.7;75.9
53954;HTU21D;39862;54.856;26.318;2022-09-09T06:33:26;10.1;75.5
53954;HTU21D;39862;54.856;26.318;2022-09-09T06:38:35;10.5;75.1
53954;HTU21D;39862;54.856;26.318;2022-09-09T06:43:49;10.9;74.1
53954;HTU21D;39862;54.856;26.318;2022-09-09T06:49:03;11.3;72.5
53954;HTU21D;39862;54.856;26.318;2022-09-09T06:53:25;11.7;71
53954;HTU21D;39862;54.856;26.318;2022-09-09T06:58:15;12.1;69.9
53954;HTU21D;39862;54.856;26.318;2022-09-09T07:03:25;12.5;68.5
53954;HTU21D;39862;54.856;26.318;2022-09-09T07:08:15;12.9;67.6
53954;HTU21D;39862;54.856;26.318;2022-09-09T07:13:39;13.3;65.8
53954;HTU21D;39862;54.856;26.318;2022-09-09T07:18:40;13.7;63.2
53954;HTU21D;39862;54.856;26.318;2022-09-09T07:23:47;14;62
53954;HTU21D;39862;54.856;26.318;2022-09-09T07:29:06;14.3;62.3
53954;HTU21D;39862;54.856;26.318;2022-09-09T07:33:15;14.7;61.7
53954;HTU21D;39862;54.856;26.318;2022-09-09T07:39:04;15.2;59.8
53954;HTU21D;39862;54.856;26.318;2022-09-09T07:44:06;15.5;57.4
53954;HTU21D;39862;54.856;26.318;2022-09-09T07:48:15;15.9;56.1
53954;HTU21D;39862;54.856;26.318;2022-09-09T07:53:25;16.2;55.5
53954;HTU21D;39862;54.856;26.318;2022-09-09T07:58:15;16.5;54.2
53954;HTU21D;39862;54.856;26.318;2022-09-09T08:03:17;16.8;53.4
53954;HTU21D;39862;54.856;26.318;2022-09-09T08:08:50;17.2;52.2
53954;HTU21D;39862;54.856;26.318;2022-09-09T08:13:51;17.5;51.2
53954;HTU21D;39862;54.856;26.318;2022-09-09T08:18:51;17.9;50.2
53954;HTU21D;39862;54.856;26.318;2022-09-09T08:23:48;18.2;48.4
53954;HTU21D;39862;54.856;26.318;2022-09-09T08:28:15;18.5;46.8
53954;HTU21D;39862;54.856;26.318;2022-09-09T08:33:50;18.8;45
53954;HTU21D;39862;54.856;26.318;2022-09-09T08:39:04;18.9;44.8
53954;HTU21D;39862;54.856;26.318;2022-09-09T08:43:25;19.1;44.2
53954;HTU21D;39862;54.856;26.318;2022-09-09T08:49:00;19.4;44.5
53954;HTU21D;39862;54.856;26.318;2022-09-09T08:54:07;19.7;42.8
53954;HTU21D;39862;54.856;26.318;2022-09-09T08:58:55;19.9;40.6
53954;HTU21D;39862;54.856;26.318;2022-09-09T09:04:40;20;40.8
53954;HTU21D;39862;54.856;26.318;2022-09-09T09:08:49;20.2;39.3
53954;HTU21D;39862;54.856;26.318;2022-09-09T09:14:09;20.4;38.4
53954;HTU21D;39862;54.856;26.318;2022-09-09T09:19:08;20.4;37.4
53954;HTU21D;39862;54.856;26.318;2022-09-09T09:23:39;20.5;37.5
53954;HTU21D;39862;54.856;26.318;2022-09-09T09:28:35;20.6;37.5
53954;HTU21D;39862;54.856;26.318;2022-09-09T09:33:23;20.7;37.1
53954;HTU21D;39862;54.856;26.318;2022-09-09T09:38:18;20.8;36.6
53954;HTU21D;39862;54.856;26.318;2022-09-09T09:43:40;20.8;35.7
53954;HTU21D;39862;54.856;26.318;2022-09-09T09:48:37;20.8;35.8
53954;HTU21D;39862;54.856;26.318;2022-09-09T09:54:04;20.9;35.5
53954;HTU21D;39862;54.856;26.318;2022-09-09T09:58:49;21.1;35.5
53954;HTU21D;39862;54.856;26.318;2022-09-09T10:03:40;21.2;34.8
53954;HTU21D;39862;54.856;26.318;2022-09-09T10:09:00;21.4;35
53954;HTU21D;39862;54.856;26.318;2022-09-09T10:14:04;21.6;34.9
53954;HTU21D;39862;54.856;26.318;2022-09-09T10:19:46;21.7;34
53954;HTU21D;39862;54.856;26.318;2022-09-09T10:28:33;22;33.5
53954;HTU21D;39862;54.856;26.318;2022-09-09T10:34:22;22.1;33.9
53954;HTU21D;39862;54.856;26.318;2022-09-09T10:38:46;22.2;33.4
53954;HTU21D;39862;54.856;26.318;2022-09-09T10:53:51;22.4;31.9
53954;HTU21D;39862;54.856;26.318;2022-09-09T10:58:36;22.5;31.9
53954;HTU21D;39862;54.856;26.318;2022-09-09T11:03:43;22.5;31.4
53954;HTU21D;39862;54.856;26.318;2022-09-09T11:09:05;22.6;31
53954;HTU21D;39862;54.856;26.318;2022-09-09T11:13:18;22.6;31.1
53954;HTU21D;39862;54.856;26.318;2022-09-09T11:18:25;22.5;30.5
53954;HTU21D;39862;54.856;26.318;2022-09-09T11:24:03;22.4;30
53954;HTU21D;39862;54.856;26.318;2022-09-09T11:29:23;22.3;29.7
53954;HTU21D;39862;54.856;26.318;2022-09-09T11:33:48;22.2;29.6
53954;HTU21D;39862;54.856;26.318;2022-09-09T11:38:45;22;29.6
53954;HTU21D;39862;54.856;26.318;2022-09-09T11:44:08;21.8;30.1
53954;HTU21D;39862;54.856;26.318;2022-09-09T11:49:03;21.7;30.6
53954;HTU21D;39862;54.856;26.318;2022-09-09T11:53:25;21.6;30.8
53954;HTU21D;39862;54.856;26.318;2022-09-09T11:58:36;21.6;31.1
53954;HTU21D;39862;54.856;26.318;2022-09-09T12:03:41;21.5;31.2
53954;HTU21D;39862;54.856;26.318;2022-09-09T12:08:16;21.5;31.1
53954;HTU21D;39862;54.856;26.318;2022-09-09T12:13:35;21.4;31.7
53954;HTU21D;39862;54.856;26.318;2022-09-09T12:18:38;21.3;31.4
53954;HTU21D;39862;54.856;26.318;2022-09-09T12:23:50;21.2;31.3
53954;HTU21D;39862;54.856;26.318;2022-09-09T12:29:04;21.2;31.9
53954;HTU21D;39862;54.856;26.318;2022-09-09T12:33:19;21.2;31.9
53954;HTU21D;39862;54.856;26.318;2022-09-09T12:38:47;21.3;31.9
53954;HTU21D;39862;54.856;26.318;2022-09-09T12:43:48;21.3;31.9
53954;HTU21D;39862;54.856;26.318;2022-09-09T12:49:02;21.4;31.7
53954;HTU21D;39862;54.856;26.318;2022-09-09T12:53:21;21.4;31.5
53954;HTU21D;39862;54.856;26.318;2022-09-09T12:58:25;21.4;31.4
53954;HTU21D;39862;54.856;26.318;2022-09-09T13:03:16;21.3;31.2
53954;HTU21D;39862;54.856;26.318;2022-09-09T13:08:27;21.3;31.2
53954;HTU21D;39862;54.856;26.318;2022-09-09T13:13:50;21.2;31.4
53954;HTU21D;39862;54.856;26.318;2022-09-09T13:18:53;21.2;31.8
53954;HTU21D;39862;54.856;26.318;2022-09-09T13:23:53;21.1;31.6
53954;HTU21D;39862;54.856;26.318;2022-09-09T13:28:42;21;31.7
53954;HTU21D;39862;54.856;26.318;2022-09-09T13:33:47;20.8;31.5
53954;HTU21D;39862;54.856;26.318;2022-09-09T13:38:55;20.6;31.5
53954;HTU21D;39862;54.856;26.318;2022-09-09T13:43:18;20.3;31.9
53954;HTU21D;39862;54.856;26.318;2022-09-09T13:48:26;20.2;32.1
53954;HTU21D;39862;54.856;26.318;2022-09-09T13:53:16;20.1;32.2
53954;HTU21D;39862;54.856;26.318;2022-09-09T13:59:02;19.8;32.2
53954;HTU21D;39862;54.856;26.318;2022-09-09T14:03:27;19.7;32.9
53954;HTU21D;39862;54.856;26.318;2022-09-09T14:08:20;19.5;33.1
53954;HTU21D;39862;54.856;26.318;2022-09-09T14:13:16;19.3;33.7
53954;HTU21D;39862;54.856;26.318;2022-09-09T14:18:56;19.2;34.2
53954;HTU21D;39862;54.856;26.318;2022-09-09T14:24:06;19.1;34.1
53954;HTU21D;39862;54.856;26.318;2022-09-09T14:28:34;19;33.8
53954;HTU21D;39862;54.856;26.318;2022-09-09T14:33:46;18.8;33.5
53954;HTU21D;39862;54.856;26.318;2022-09-09T14:38:29;18.7;33.3
53954;HTU21D;39862;54.856;26.318;2022-09-09T14:43:26;18.5;33.8
53954;HTU21D;39862;54.856;26.318;2022-09-09T14:48:40;18.3;34.1
53954;HTU21D;39862;54.856;26.318;2022-09-09T14:53:40;18.3;34.5
53954;HTU21D;39862;54.856;26.318;2022-09-09T14:58:46;18.2;35.3
53954;HTU21D;39862;54.856;26.318;2022-09-09T15:03:51;18.1;35.9
53954;HTU21D;39862;54.856;26.318;2022-09-09T15:08:38;18;36.3
53954;HTU21D;39862;54.856;26.318;2022-09-09T15:14:02;17.9;36.6
53954;HTU21D;39862;54.856;26.318;2022-09-09T15:19:04;17.9;36.9
53954;HTU21D;39862;54.856;26.318;2022-09-09T15:23:26;17.8;37.5
53954;HTU21D;39862;54.856;26.318;2022-09-09T15:28:26;17.7;37.9
53954;HTU21D;39862;54.856;26.318;2022-09-09T15:33:16;17.6;38.4
53954;HTU21D;39862;54.856;26.318;2022-09-09T15:39:02;17.5;38.8
53954;HTU21D;39862;54.856;26.318;2022-09-09T15:43:48;17.3;39.1
53954;HTU21D;39862;54.856;26.318;2022-09-09T15:48:57;17.3;40
53954;HTU21D;39862;54.856;26.318;2022-09-09T15:53:53;17.2;40.5
53954;HTU21D;39862;54.856;26.318;2022-09-09T15:58:42;17.1;40.8
53954;HTU21D;39862;54.856;26.318;2022-09-09T16:03:34;17;41.1
53954;HTU21D;39862;54.856;26.318;2022-09-09T16:08:49;16.9;41.5
53954;HTU21D;39862;54.856;26.318;2022-09-09T16:13:16;16.8;41.7
53954;HTU21D;39862;54.856;26.318;2022-09-09T16:18:16;16.6;41.9
53954;HTU21D;39862;54.856;26.318;2022-09-09T16:23:26;16.5;42.3
53954;HTU21D;39862;54.856;26.318;2022-09-09T16:29:02;16.4;42.8
53954;HTU21D;39862;54.856;26.318;2022-09-09T16:33:50;16.2;43.2
53954;HTU21D;39862;54.856;26.318;2022-09-09T16:38:26;16.1;43.5
53954;HTU21D;39862;54.856;26.318;2022-09-09T16:43:16;16;43.8
53954;HTU21D;39862;54.856;26.318;2022-09-09T16:48:52;15.8;44
53954;HTU21D;39862;54.856;26.318;2022-09-09T16:54:03;15.7;44.3
53954;HTU21D;39862;54.856;26.318;2022-09-09T16:58:26;15.5;44.4
53954;HTU21D;39862;54.856;26.318;2022-09-09T17:03:16;15.4;44.7
53954;HTU21D;39862;54.856;26.318;2022-09-09T17:08:26;15.2;45
53954;HTU21D;39862;54.856;26.318;2022-09-09T17:13:26;15.1;45.3
53954;HTU21D;39862;54.856;26.318;2022-09-09T17:18:40;14.9;45.8
53954;HTU21D;39862;54.856;26.318;2022-09-09T17:23:28;14.8;46.1
53954;HTU21D;39862;54.856;26.318;2022-09-09T17:28:48;14.6;46.2
53954;HTU21D;39862;54.856;26.318;2022-09-09T17:34:02;14.5;46.5
53954;HTU21D;39862;54.856;26.318;2022-09-09T17:38:38;14.3;46.8
53954;HTU21D;39862;54.856;26.318;2022-09-09T17:43:50;14.2;47
53954;HTU21D;39862;54.856;26.318;2022-09-09T17:48:50;14.1;47.4
53954;HTU21D;39862;54.856;26.318;2022-09-09T17:54:06;13.9;47.6
53954;HTU21D;39862;54.856;26.318;2022-09-09T17:58:26;13.8;47.9
53954;HTU21D;39862;54.856;26.318;2022-09-09T18:03:56;13.7;48.1
53954;HTU21D;39862;54.856;26.318;2022-09-09T18:09:06;13.6;48.2
53954;HTU21D;39862;54.856;26.318;2022-09-09T18:13:50;13.5;48.4
53954;HTU21D;39862;54.856;26.318;2022-09-09T18:18:40;13.3;48.8
53954;HTU21D;39862;54.856;26.318;2022-09-09T18:23:42;13.2;49.1
53954;HTU21D;39862;54.856;26.318;2022-09-09T18:28:50;13.1;49.3
53954;HTU21D;39862;54.856;26.318;2022-09-09T18:33:35;13;49.5
53954;HTU21D;39862;54.856;26.318;2022-09-09T18:38:32;12.9;49.7
53954;HTU21D;39862;54.856;26.318;2022-09-09T18:44:05;12.8;50
53954;HTU21D;39862;54.856;26.318;2022-09-09T18:48:16;12.7;50.4
53954;HTU21D;39862;54.856;26.318;2022-09-09T18:53:26;12.5;50.9
53954;HTU21D;39862;54.856;26.318;2022-09-09T18:59:02;12.5;51.1
53954;HTU21D;39862;54.856;26.318;2022-09-09T19:04:02;12.4;51.3
53954;HTU21D;39862;54.856;26.318;2022-09-09T19:09:00;12.3;51.6
53954;HTU21D;39862;54.856;26.318;2022-09-09T19:13:38;12.2;51.8
53954;HTU21D;39862;54.856;26.318;2022-09-09T19:19:01;12.1;51.9
53954;HTU21D;39862;54.856;26.318;2022-09-09T19:24:05;12;52.1
53954;HTU21D;39862;54.856;26.318;2022-09-09T19:28:34;11.9;52.5
53954;HTU21D;39862;54.856;26.318;2022-09-09T19:33:26;11.8;52.7
53954;HTU21D;39862;54.856;26.318;2022-09-09T19:38:24;11.8;52.9
53954;HTU21D;39862;54.856;26.318;2022-09-09T19:43:16;11.6;53.1
53954;HTU21D;39862;54.856;26.318;2022-09-09T19:48:36;11.6;53.2
53954;HTU21D;39862;54.856;26.318;2022-09-09T19:53:16;11.5;53.4
53954;HTU21D;39862;54.856;26.318;2022-09-09T19:59:04;11.4;53.7
53954;HTU21D;39862;54.856;26.318;2022-09-09T20:04:04;11.3;53.9
53954;HTU21D;39862;54.856;26.318;2022-09-09T20:08:38;11.2;54
53954;HTU21D;39862;54.856;26.318;2022-09-09T20:14:04;11.2;54
53954;HTU21D;39862;54.856;26.318;2022-09-09T20:39:06;11.2;54
53954;HTU21D;39862;54.856;26.318;2022-09-09T20:43:48;11.2;54
53954;HTU21D;39862;54.856;26.318;2022-09-09T20:48:38;11.2;54
53954;HTU21D;39862;54.856;26.318;2022-09-09T20:53:57;11.2;54
53954;HTU21D;39862;54.856;26.318;2022-09-09T20:58:50;11.2;54
53954;HTU21D;39862;54.856;26.318;2022-09-09T21:03:28;11.2;54
53954;HTU21D;39862;54.856;26.318;2022-09-09T21:08:42;10.3;56
53954;HTU21D;39862;54.856;26.318;2022-09-09T21:14:02;10.2;56.1
53954;HTU21D;39862;54.856;26.318;2022-09-09T21:18:16;10.2;56.3
53954;HTU21D;39862;54.856;26.318;2022-09-09T21:23:26;10.1;56.4
53954;HTU21D;39862;54.856;26.318;2022-09-09T21:29:04;10;56.6
53954;HTU21D;39862;54.856;26.318;2022-09-09T21:34:02;9.9;56.7
53954;HTU21D;39862;54.856;26.318;2022-09-09T21:39:02;9.9;56.7
53954;HTU21D;39862;54.856;26.318;2022-09-09T21:43:40;9.8;56.8
53954;HTU21D;39862;54.856;26.318;2022-09-09T21:49:04;9.7;57.1
53954;HTU21D;39862;54.856;26.318;2022-09-09T21:54:02;9.6;57.5
53954;HTU21D;39862;54.856;26.318;2022-09-09T21:58:34;9.6;57.7
53954;HTU21D;39862;54.856;26.318;2022-09-09T22:03:35;9.5;57.8
53954;HTU21D;39862;54.856;26.318;2022-09-09T22:08:26;9.4;58
53954;HTU21D;39862;54.856;26.318;2022-09-09T22:13:16;9.3;58.2
53954;HTU21D;39862;54.856;26.318;2022-09-09T22:18:16;9.3;58.4
53954;HTU21D;39862;54.856;26.318;2022-09-09T22:23:38;9.2;58.5
53954;HTU21D;39862;54.856;26.318;2022-09-09T22:28:48;9.2;58.7
53954;HTU21D;39862;54.856;26.318;2022-09-09T22:33:40;9.1;59.1
53954;HTU21D;39862;54.856;26.318;2022-09-09T22:39:04;9.1;59.5
